createdAt,value
2023-05-13T00:01:21.340Z,10.03
2023-05-13T00:03:49.276Z,10.06
2023-05-13T00:06:17.295Z,10.05
2023-05-13T00:08:45.381Z,10.03
2023-05-13T00:11:13.219Z,10.03
2023-05-13T00:13:40.945Z,10.02
2023-05-13T00:16:08.789Z,10.02
2023-05-13T00:18:36.703Z,10.03
2023-05-13T00:21:04.728Z,10.04
2023-05-13T00:23:33.256Z,10.01
2023-05-13T00:26:01.417Z,10.02
2023-05-13T00:28:29.336Z,10.01
2023-05-13T00:30:57.278Z,9.97
2023-05-13T00:33:25.503Z,9.95
2023-05-13T00:35:53.292Z,9.96
2023-05-13T00:38:21.036Z,9.92
2023-05-13T00:40:49.915Z,9.89
2023-05-13T00:43:18.258Z,9.87
2023-05-13T00:45:46.146Z,9.84
2023-05-13T00:48:13.963Z,9.83
2023-05-13T00:50:44.553Z,9.85
2023-05-13T00:53:13.493Z,9.81
2023-05-13T00:55:43.642Z,9.82
2023-05-13T00:58:11.774Z,9.84
2023-05-13T01:01:02.983Z,9.85
2023-05-13T01:03:50.607Z,9.86
2023-05-13T01:06:29.699Z,9.87
2023-05-13T01:09:31.018Z,9.89
2023-05-13T01:12:08.654Z,9.92
2023-05-13T01:14:52.136Z,9.96
2023-05-13T01:17:31.993Z,9.95
2023-05-13T01:20:03.844Z,9.92
2023-05-13T01:22:32.273Z,9.91
2023-05-13T01:25:00.554Z,9.93
2023-05-13T01:27:28.809Z,9.92
2023-05-13T01:29:57.393Z,9.89
2023-05-13T01:32:29.474Z,9.89
2023-05-13T01:34:58.645Z,9.88
2023-05-13T01:37:27.812Z,9.84
2023-05-13T01:39:55.976Z,9.84
2023-05-13T01:42:25.528Z,9.83
2023-05-13T01:44:54.490Z,9.81
2023-05-13T01:47:22.395Z,9.81
2023-05-13T01:49:50.884Z,9.80
2023-05-13T01:52:18.850Z,9.80
2023-05-13T01:54:46.897Z,9.79
2023-05-13T01:57:15.233Z,9.78
2023-05-13T01:59:43.021Z,9.79
2023-05-13T02:02:10.821Z,9.73
2023-05-13T02:04:38.668Z,9.74
2023-05-13T02:07:06.723Z,9.69
2023-05-13T02:09:35.784Z,9.67
2023-05-13T02:12:07.232Z,9.68
2023-05-13T02:14:35.113Z,9.65
2023-05-13T02:17:03.464Z,9.60
2023-05-13T02:19:31.342Z,9.60
2023-05-13T02:21:59.150Z,9.61
2023-05-13T02:24:26.865Z,9.64
2023-05-13T02:26:55.791Z,9.66
2023-05-13T02:29:23.886Z,9.67
2023-05-13T02:31:51.647Z,9.66
2023-05-13T02:34:19.686Z,9.60
2023-05-13T02:36:48.763Z,9.57
2023-05-13T02:39:16.653Z,9.57
2023-05-13T02:41:44.610Z,9.54
2023-05-13T02:44:12.723Z,9.56
2023-05-13T02:46:40.461Z,9.56
2023-05-13T02:49:08.280Z,9.55
2023-05-13T02:51:35.978Z,9.53
2023-05-13T02:54:06.717Z,9.50
2023-05-13T02:56:34.545Z,9.48
2023-05-13T02:59:02.398Z,9.50
2023-05-13T03:01:30.384Z,9.52
2023-05-13T03:03:58.188Z,9.50
2023-05-13T03:06:25.925Z,9.50
2023-05-13T03:08:53.689Z,9.49
2023-05-13T03:11:21.819Z,9.45
2023-05-13T03:13:49.563Z,9.40
2023-05-13T03:16:17.347Z,9.43
2023-05-13T03:18:45.314Z,9.43
2023-05-13T03:21:13.395Z,9.43
2023-05-13T03:23:41.210Z,9.35
2023-05-13T03:26:09.173Z,9.35
2023-05-13T03:28:36.965Z,9.34
2023-05-13T03:31:05.641Z,9.30
2023-05-13T03:33:35.577Z,9.30
2023-05-13T03:36:04.533Z,9.29
2023-05-13T03:38:32.962Z,9.28
2023-05-13T03:41:00.850Z,9.33
2023-05-13T03:43:29.278Z,9.34
2023-05-13T03:46:00.625Z,9.36
2023-05-13T03:48:29.130Z,9.34
2023-05-13T03:50:57.804Z,9.34
2023-05-13T03:53:26.002Z,9.35
2023-05-13T03:55:57.584Z,9.33
2023-05-13T03:58:25.372Z,9.27
2023-05-13T04:00:53.240Z,9.27
2023-05-13T04:03:21.184Z,9.30
2023-05-13T04:05:51.668Z,9.30
2023-05-13T04:08:19.491Z,9.33
2023-05-13T04:10:47.451Z,9.34
2023-05-13T04:13:15.373Z,9.34
2023-05-13T04:15:44.584Z,9.34
2023-05-13T04:18:12.355Z,9.36
2023-05-13T04:20:41.017Z,9.37
2023-05-13T04:23:08.811Z,9.37
2023-05-13T04:25:39.851Z,9.34
2023-05-13T04:28:07.703Z,9.34
2023-05-13T04:30:44.722Z,9.37
2023-05-13T04:33:13.042Z,9.38
2023-05-13T04:35:43.832Z,9.33
2023-05-13T04:38:12.581Z,9.28
2023-05-13T04:40:40.555Z,9.29
2023-05-13T04:43:12.441Z,9.30
2023-05-13T04:45:47.816Z,9.29
2023-05-13T04:48:16.674Z,9.32
2023-05-13T04:50:48.418Z,9.34
2023-05-13T04:53:17.427Z,9.34
2023-05-13T04:55:49.892Z,9.34
2023-05-13T04:58:17.708Z,9.34
2023-05-13T05:00:45.850Z,9.34
2023-05-13T05:03:14.557Z,9.37
2023-05-13T05:05:42.517Z,9.34
2023-05-13T05:08:11.276Z,9.37
2023-05-13T05:10:39.045Z,9.37
2023-05-13T05:13:10.269Z,9.35
2023-05-13T05:15:38.343Z,9.32
2023-05-13T05:18:08.097Z,9.31
2023-05-13T05:20:38.452Z,9.32
2023-05-13T05:23:10.499Z,9.34
2023-05-13T05:25:39.130Z,9.35
2023-05-13T05:28:09.401Z,9.38
2023-05-13T05:30:40.093Z,9.39
2023-05-13T05:33:13.229Z,9.42
2023-05-13T05:35:41.705Z,9.47
2023-05-13T05:38:12.589Z,9.53
2023-05-13T05:40:46.217Z,9.54
2023-05-13T05:43:14.994Z,9.56
2023-05-13T05:45:43.820Z,9.57
2023-05-13T05:48:14.521Z,9.61
2023-05-13T05:50:43.517Z,9.65
2023-05-13T05:53:13.840Z,9.68
2023-05-13T05:55:42.456Z,9.64
2023-05-13T05:58:16.394Z,9.65
2023-05-13T06:00:44.648Z,9.61
2023-05-13T06:03:12.802Z,9.56
2023-05-13T06:05:40.828Z,9.60
2023-05-13T06:08:08.568Z,9.66
2023-05-13T06:10:36.448Z,9.72
2023-05-13T06:13:04.818Z,9.70
2023-05-13T06:15:32.712Z,9.70
2023-05-13T06:18:01.748Z,9.64
2023-05-13T06:20:29.671Z,9.62
2023-05-13T06:22:57.894Z,9.58
2023-05-13T06:25:26.743Z,9.57
2023-05-13T06:27:55.061Z,9.58
2023-05-13T06:30:23.634Z,9.61
2023-05-13T06:33:00.997Z,9.64
2023-05-13T06:35:31.525Z,9.70
2023-05-13T06:38:00.190Z,9.69
2023-05-13T06:40:28.478Z,9.75
2023-05-13T06:42:56.686Z,9.81
2023-05-13T06:45:30.229Z,9.84
2023-05-13T06:47:58.208Z,9.85
2023-05-13T06:50:26.092Z,9.84
2023-05-13T06:52:55.094Z,9.85
2023-05-13T06:55:22.909Z,9.91
2023-05-13T06:57:51.269Z,9.93
2023-05-13T07:00:19.400Z,9.95
2023-05-13T07:02:47.387Z,9.91
2023-05-13T07:05:15.405Z,9.94
2023-05-13T07:07:43.458Z,10.00
2023-05-13T07:10:11.372Z,10.03
2023-05-13T07:12:39.419Z,10.06
2023-05-13T07:15:08.490Z,10.03
2023-05-13T07:17:36.444Z,10.01
2023-05-13T07:20:04.602Z,10.02
2023-05-13T07:22:32.959Z,10.05
2023-05-13T07:25:01.257Z,10.10
2023-05-13T07:27:29.023Z,10.17
2023-05-13T07:29:56.748Z,10.26
2023-05-13T07:32:24.525Z,10.27
2023-05-13T07:34:52.340Z,10.30
2023-05-13T07:37:20.263Z,10.32
2023-05-13T07:39:47.968Z,10.34
2023-05-13T07:42:15.809Z,10.33
2023-05-13T07:44:44.048Z,10.31
2023-05-13T07:47:13.623Z,10.32
2023-05-13T07:49:41.707Z,10.40
2023-05-13T07:52:09.546Z,10.52
2023-05-13T07:54:37.312Z,10.59
2023-05-13T07:57:05.304Z,10.60
2023-05-13T07:59:33.148Z,10.59
2023-05-13T08:02:00.937Z,10.63
2023-05-13T08:04:28.731Z,10.64
2023-05-13T08:06:56.589Z,10.68
2023-05-13T08:09:24.554Z,10.69
2023-05-13T08:11:52.336Z,10.70
2023-05-13T08:14:20.964Z,10.74
2023-05-13T08:16:49.021Z,10.77
2023-05-13T08:19:17.521Z,10.82
2023-05-13T08:21:45.493Z,10.82
2023-05-13T08:24:13.287Z,10.88
2023-05-13T08:26:41.030Z,10.89
2023-05-13T08:29:12.950Z,10.88
2023-05-13T08:31:42.167Z,10.85
2023-05-13T08:34:10.100Z,10.75
2023-05-13T08:36:37.866Z,10.76
2023-05-13T08:39:05.760Z,10.85
2023-05-13T08:41:34.715Z,10.88
2023-05-13T08:44:06.901Z,10.91
2023-05-13T08:46:39.018Z,10.87
2023-05-13T08:49:08.063Z,10.92
2023-05-13T08:51:35.898Z,10.94
2023-05-13T08:54:03.856Z,10.96
2023-05-13T08:56:31.711Z,10.97
2023-05-13T08:58:59.544Z,11.03
2023-05-13T09:01:28.892Z,11.03
2023-05-13T09:04:06.306Z,11.02
2023-05-13T09:06:34.637Z,11.10
2023-05-13T09:09:03.067Z,11.25
2023-05-13T09:11:31.019Z,11.29
2023-05-13T09:14:01.434Z,11.27
2023-05-13T09:16:30.396Z,11.21
2023-05-13T09:19:05.794Z,11.23
2023-05-13T09:21:36.524Z,11.26
2023-05-13T09:24:11.770Z,11.35
2023-05-13T09:26:42.276Z,11.46
2023-05-13T09:29:30.386Z,11.52
2023-05-13T09:32:01.519Z,11.67
2023-05-13T09:34:34.744Z,11.64
2023-05-13T09:37:06.464Z,11.65
2023-05-13T09:39:41.168Z,11.82
2023-05-13T09:42:17.227Z,11.91
2023-05-13T09:44:46.818Z,12.02
2023-05-13T09:47:16.050Z,12.16
2023-05-13T09:49:53.081Z,12.23
2023-05-13T09:52:22.339Z,12.32
2023-05-13T09:54:50.139Z,12.39
2023-05-13T09:57:17.920Z,12.49
2023-05-13T09:59:45.692Z,12.54
2023-05-13T10:02:17.928Z,12.66
2023-05-13T10:04:46.116Z,12.65
2023-05-13T10:07:14.752Z,12.61
2023-05-13T10:09:46.242Z,12.54
2023-05-13T10:12:15.349Z,12.56
2023-05-13T10:14:44.158Z,12.57
2023-05-13T10:17:13.548Z,12.63
2023-05-13T10:19:42.369Z,12.76
2023-05-13T10:22:11.890Z,12.85
2023-05-13T10:24:41.669Z,12.87
2023-05-13T10:27:12.035Z,12.91
2023-05-13T10:29:40.728Z,12.87
2023-05-13T10:32:09.818Z,12.86
2023-05-13T10:34:39.935Z,12.90
2023-05-13T10:37:42.528Z,13.00
2023-05-13T10:40:38.361Z,12.95
2023-05-13T10:43:18.708Z,12.92
2023-05-13T10:46:07.857Z,12.89
2023-05-13T10:48:51.586Z,12.89
2023-05-13T10:51:24.567Z,12.86
2023-05-13T10:53:57.914Z,12.94
2023-05-13T10:56:28.614Z,13.05
2023-05-13T10:59:06.360Z,13.11
2023-05-13T11:01:43.887Z,13.29
2023-05-13T11:04:15.701Z,13.41
2023-05-13T11:06:46.493Z,13.50
2023-05-13T11:09:20.425Z,13.67
2023-05-13T11:11:53.324Z,13.76
2023-05-13T11:14:26.896Z,13.73
2023-05-13T11:17:20.075Z,13.65
2023-05-13T11:19:51.548Z,13.40
2023-05-13T11:22:24.317Z,13.26
2023-05-13T11:25:10.510Z,13.21
2023-05-13T11:27:42.926Z,13.31
2023-05-13T11:30:23.816Z,13.38
2023-05-13T11:32:58.309Z,13.43
2023-05-13T11:35:32.603Z,13.52
2023-05-13T11:38:03.560Z,13.69
2023-05-13T11:40:34.825Z,13.88
2023-05-13T11:43:05.131Z,14.03
2023-05-13T11:45:33.982Z,14.10
2023-05-13T11:48:22.557Z,14.02
2023-05-13T11:50:52.816Z,14.08
2023-05-13T11:53:22.684Z,14.21
2023-05-13T11:55:51.517Z,14.31
2023-05-13T11:58:21.548Z,14.29
2023-05-13T12:00:49.302Z,14.22
2023-05-13T12:03:17.109Z,14.27
2023-05-13T12:05:45.017Z,14.24
2023-05-13T12:08:13.396Z,14.28
2023-05-13T12:10:45.605Z,14.23
2023-05-13T12:13:13.879Z,14.21
2023-05-13T12:15:42.743Z,14.26
2023-05-13T12:18:10.918Z,14.30
2023-05-13T12:20:38.740Z,14.24
2023-05-13T12:23:06.643Z,14.25
2023-05-13T12:25:46.989Z,14.18
2023-05-13T12:28:26.026Z,14.12
2023-05-13T12:30:58.673Z,14.17
2023-05-13T12:33:30.020Z,14.15
2023-05-13T12:36:36.307Z,13.98
2023-05-13T12:39:09.106Z,13.94
2023-05-13T12:41:42.470Z,14.07
2023-05-13T12:44:14.877Z,14.15
2023-05-13T12:46:54.907Z,14.19
2023-05-13T12:49:23.218Z,14.16
2023-05-13T12:51:55.710Z,14.19
2023-05-13T12:54:23.570Z,14.15
2023-05-13T12:56:52.586Z,14.25
2023-05-13T12:59:20.390Z,14.23
2023-05-13T13:01:49.963Z,14.34
2023-05-13T13:04:19.148Z,14.48
2023-05-13T13:06:47.179Z,14.55
2023-05-13T13:09:14.931Z,14.48
2023-05-13T13:11:42.699Z,14.44
2023-05-13T13:14:10.476Z,14.51
2023-05-13T13:16:38.442Z,14.53
2023-05-13T13:19:06.503Z,14.44
2023-05-13T13:21:34.315Z,14.41
2023-05-13T13:24:02.058Z,14.47
2023-05-13T13:26:29.846Z,14.49
2023-05-13T13:28:57.575Z,14.57
2023-05-13T13:31:25.396Z,14.70
2023-05-13T13:33:54.001Z,14.78
2023-05-13T13:36:21.856Z,14.82
2023-05-13T13:38:49.585Z,14.84
2023-05-13T13:41:17.304Z,14.79
2023-05-13T13:43:45.060Z,14.68
2023-05-13T13:46:12.890Z,14.73
2023-05-13T13:48:40.990Z,14.76
2023-05-13T13:51:08.874Z,14.62
2023-05-13T13:53:36.604Z,14.66
2023-05-13T13:56:04.572Z,14.73
2023-05-13T13:58:32.367Z,14.85
2023-05-13T14:01:00.142Z,14.84
2023-05-13T14:03:28.269Z,14.87
2023-05-13T14:05:56.602Z,14.84
2023-05-13T14:08:24.614Z,14.76
2023-05-13T14:10:52.556Z,14.84
2023-05-13T14:13:20.598Z,14.80
2023-05-13T14:15:48.401Z,14.86
2023-05-13T14:18:16.190Z,14.89
2023-05-13T14:20:44.243Z,14.96
2023-05-13T14:23:12.203Z,14.96
2023-05-13T14:25:40.022Z,14.96
2023-05-13T14:28:07.853Z,14.79
2023-05-13T14:30:35.617Z,14.92
2023-05-13T14:33:03.687Z,15.04
2023-05-13T14:35:31.538Z,14.94
2023-05-13T14:37:59.249Z,14.71
2023-05-13T14:40:26.978Z,14.81
2023-05-13T14:42:54.880Z,14.88
2023-05-13T14:45:22.797Z,15.03
2023-05-13T14:47:53.698Z,15.20
2023-05-13T14:50:22.127Z,15.31
2023-05-13T14:52:50.364Z,15.29
2023-05-13T14:55:18.194Z,15.10
2023-05-13T14:57:46.032Z,14.84
2023-05-13T15:00:14.714Z,14.82
2023-05-13T15:02:42.573Z,14.88
2023-05-13T15:05:11.292Z,14.84
2023-05-13T15:07:39.270Z,14.81
2023-05-13T15:10:08.271Z,14.88
2023-05-13T15:12:36.035Z,14.80
2023-05-13T15:15:04.707Z,14.53
2023-05-13T15:17:32.678Z,14.42
2023-05-13T15:20:00.469Z,14.28
2023-05-13T15:22:28.237Z,14.19
2023-05-13T15:24:55.960Z,14.02
2023-05-13T15:27:23.803Z,14.02
2023-05-13T15:29:51.521Z,13.95
2023-05-13T15:32:19.317Z,13.87
2023-05-13T15:34:47.065Z,13.80
2023-05-13T15:37:14.862Z,13.81
2023-05-13T15:39:42.622Z,13.87
2023-05-13T15:42:10.459Z,13.84
2023-05-13T15:44:38.268Z,13.87
2023-05-13T15:47:06.883Z,13.97
2023-05-13T15:49:34.817Z,13.99
2023-05-13T15:52:06.244Z,13.95
2023-05-13T15:54:34.744Z,13.96
2023-05-13T15:57:02.578Z,13.97
2023-05-13T15:59:30.340Z,13.99
2023-05-13T16:01:58.208Z,14.05
2023-05-13T16:04:26.467Z,14.07
2023-05-13T16:06:54.349Z,14.03
2023-05-13T16:09:22.135Z,14.05
2023-05-13T16:11:50.268Z,14.06
2023-05-13T16:14:19.408Z,13.98
2023-05-13T16:16:47.500Z,13.89
2023-05-13T16:19:15.517Z,13.92
2023-05-13T16:21:43.639Z,13.93
2023-05-13T16:24:11.447Z,13.93
2023-05-13T16:26:39.246Z,13.84
2023-05-13T16:29:07.063Z,13.85
2023-05-13T16:31:34.897Z,13.81
2023-05-13T16:34:03.030Z,13.80
2023-05-13T16:36:31.119Z,13.85
2023-05-13T16:38:59.057Z,13.85
2023-05-13T16:41:26.884Z,13.80
2023-05-13T16:43:54.663Z,13.70
2023-05-13T16:46:22.668Z,13.58
2023-05-13T16:48:50.949Z,13.55
2023-05-13T16:51:18.848Z,13.51
2023-05-13T16:53:46.595Z,13.44
2023-05-13T16:56:14.355Z,13.44
2023-05-13T16:58:42.091Z,13.29
2023-05-13T17:01:09.984Z,13.21
2023-05-13T17:03:37.849Z,13.21
2023-05-13T17:06:07.687Z,13.23
2023-05-13T17:08:35.659Z,13.17
2023-05-13T17:11:03.706Z,13.11
2023-05-13T17:13:31.653Z,13.05
2023-05-13T17:15:59.394Z,13.03
2023-05-13T17:18:27.239Z,13.00
2023-05-13T17:20:55.136Z,12.96
2023-05-13T17:23:22.956Z,12.89
2023-05-13T17:25:51.010Z,12.81
2023-05-13T17:28:18.769Z,12.79
2023-05-13T17:30:46.631Z,12.80
2023-05-13T17:33:14.479Z,12.83
2023-05-13T17:35:42.245Z,12.89
2023-05-13T17:38:10.045Z,12.87
2023-05-13T17:40:37.832Z,12.85
2023-05-13T17:43:05.802Z,12.83
2023-05-13T17:45:35.790Z,12.80
2023-05-13T17:48:04.494Z,12.78
2023-05-13T17:50:32.374Z,12.77
2023-05-13T17:53:00.821Z,12.75
2023-05-13T17:55:28.790Z,12.76
2023-05-13T17:57:57.113Z,12.78
2023-05-13T18:00:25.937Z,12.75
2023-05-13T18:02:54.108Z,12.71
2023-05-13T18:05:23.863Z,12.73
2023-05-13T18:07:52.385Z,12.71
2023-05-13T18:10:21.815Z,12.72
2023-05-13T18:12:51.895Z,12.65
2023-05-13T18:15:22.911Z,12.63
2023-05-13T18:17:51.214Z,12.62
2023-05-13T18:20:19.809Z,12.58
2023-05-13T18:22:47.646Z,12.50
2023-05-13T18:25:15.749Z,12.42
2023-05-13T18:27:43.489Z,12.39
2023-05-13T18:30:12.423Z,12.38
2023-05-13T18:32:40.179Z,12.37
2023-05-13T18:35:08.806Z,12.40
2023-05-13T18:37:37.002Z,12.38
2023-05-13T18:40:06.024Z,12.41
2023-05-13T18:42:33.800Z,12.43
2023-05-13T18:45:01.534Z,12.41
2023-05-13T18:47:29.363Z,12.39
2023-05-13T18:49:57.419Z,12.41
2023-05-13T18:52:26.165Z,12.42
2023-05-13T18:54:53.982Z,12.44
2023-05-13T18:57:23.728Z,12.44
2023-05-13T18:59:51.792Z,12.43
2023-05-13T19:02:19.728Z,12.43
2023-05-13T19:04:47.779Z,12.43
2023-05-13T19:07:15.559Z,12.41
2023-05-13T19:09:43.330Z,12.40
2023-05-13T19:12:11.509Z,12.40
2023-05-13T19:14:39.253Z,12.38
2023-05-13T19:17:07.276Z,12.36
2023-05-13T19:19:35.144Z,12.33
2023-05-13T19:22:03.108Z,12.26
2023-05-13T19:24:30.980Z,12.17
2023-05-13T19:26:58.941Z,12.13
2023-05-13T19:29:26.765Z,12.09
2023-05-13T19:31:54.589Z,12.08
2023-05-13T19:34:22.432Z,12.05
2023-05-13T19:36:50.388Z,11.98
2023-05-13T19:39:18.207Z,11.93
2023-05-13T19:41:47.941Z,11.90
2023-05-13T19:44:15.798Z,11.86
2023-05-13T19:46:43.671Z,11.83
2023-05-13T19:49:11.585Z,11.80
2023-05-13T19:51:39.707Z,11.78
2023-05-13T19:54:09.719Z,11.77
2023-05-13T19:56:38.372Z,11.76
2023-05-13T19:59:06.233Z,11.75
2023-05-13T20:01:34.642Z,11.72
2023-05-13T20:04:02.540Z,11.70
2023-05-13T20:06:30.962Z,11.66
2023-05-13T20:08:59.475Z,11.65
2023-05-13T20:11:28.088Z,11.62
2023-05-13T20:13:56.104Z,11.64
2023-05-13T20:16:23.931Z,11.67
2023-05-13T20:18:51.768Z,11.70
2023-05-13T20:21:19.673Z,11.74
2023-05-13T20:23:47.646Z,11.74
2023-05-13T20:26:15.421Z,11.68
2023-05-13T20:28:45.197Z,11.61
2023-05-13T20:31:12.977Z,11.57
2023-05-13T20:33:40.928Z,11.54
2023-05-13T20:36:08.710Z,11.49
2023-05-13T20:38:36.561Z,11.42
2023-05-13T20:41:04.335Z,11.40
2023-05-13T20:43:37.116Z,11.40
2023-05-13T20:46:07.007Z,11.39
2023-05-13T20:48:35.477Z,11.36
2023-05-13T20:51:06.019Z,11.36
2023-05-13T20:53:37.257Z,11.37
2023-05-13T20:56:09.851Z,11.34
2023-05-13T20:58:37.674Z,11.29
2023-05-13T21:01:05.530Z,11.29
2023-05-13T21:03:33.486Z,11.35
2023-05-13T21:06:01.429Z,11.42
2023-05-13T21:08:29.304Z,11.40
2023-05-13T21:10:57.466Z,11.31
2023-05-13T21:13:26.012Z,11.23
2023-05-13T21:15:53.913Z,11.19
2023-05-13T21:18:22.008Z,11.18
2023-05-13T21:20:50.168Z,11.20
2023-05-13T21:23:19.390Z,11.27
2023-05-13T21:25:48.235Z,11.26
2023-05-13T21:28:18.543Z,11.27
2023-05-13T21:30:46.429Z,11.29
2023-05-13T21:33:14.426Z,11.26
2023-05-13T21:35:42.193Z,11.23
2023-05-13T21:38:12.385Z,11.19
2023-05-13T21:40:40.898Z,11.15
2023-05-13T21:43:08.973Z,11.15
2023-05-13T21:45:37.352Z,11.12
2023-05-13T21:48:06.755Z,11.10
2023-05-13T21:50:35.431Z,11.14
2023-05-13T21:53:04.518Z,11.19
2023-05-13T21:55:35.030Z,11.20
2023-05-13T21:58:03.241Z,11.11
2023-05-13T22:00:31.799Z,11.04
2023-05-13T22:03:01.482Z,10.97
2023-05-13T22:05:29.427Z,10.94
2023-05-13T22:07:57.440Z,10.85
2023-05-13T22:10:26.841Z,10.77
2023-05-13T22:12:55.854Z,10.72
2023-05-13T22:15:23.648Z,10.69
2023-05-13T22:17:52.152Z,10.72
2023-05-13T22:20:20.233Z,10.70
2023-05-13T22:22:48.129Z,10.71
2023-05-13T22:25:15.981Z,10.74
2023-05-13T22:27:43.825Z,10.73
2023-05-13T22:30:11.985Z,10.68
2023-05-13T22:32:40.200Z,10.59
2023-05-13T22:35:09.304Z,10.53
2023-05-13T22:37:37.018Z,10.46
2023-05-13T22:40:06.503Z,10.46
2023-05-13T22:42:34.272Z,10.50
2023-05-13T22:45:02.089Z,10.58
2023-05-13T22:47:29.941Z,10.66
2023-05-13T22:49:57.680Z,10.66
2023-05-13T22:52:25.483Z,10.64
2023-05-13T22:54:53.352Z,10.68
2023-05-13T22:57:22.005Z,10.68
2023-05-13T22:59:49.858Z,10.65
2023-05-13T23:02:17.673Z,10.64
2023-05-13T23:04:45.434Z,10.58
2023-05-13T23:07:13.282Z,10.50
2023-05-13T23:09:41.229Z,10.46
2023-05-13T23:12:09.042Z,10.48
2023-05-13T23:14:36.842Z,10.53
2023-05-13T23:17:04.782Z,10.52
2023-05-13T23:19:33.042Z,10.53
2023-05-13T23:22:01.048Z,10.50
2023-05-13T23:24:28.855Z,10.46
2023-05-13T23:26:56.702Z,10.40
2023-05-13T23:29:27.623Z,10.39
2023-05-13T23:31:56.109Z,10.38
2023-05-13T23:34:24.102Z,10.35
2023-05-13T23:36:51.936Z,10.24
2023-05-13T23:39:20.142Z,10.20
2023-05-13T23:41:48.190Z,10.20
2023-05-13T23:44:16.043Z,10.15
2023-05-13T23:46:43.798Z,10.15
2023-05-13T23:49:11.633Z,10.16
2023-05-13T23:51:39.371Z,10.14
2023-05-13T23:54:08.300Z,10.11
2023-05-13T23:56:36.131Z,10.09
2023-05-13T23:59:03.955Z,10.10
